Time;durP1;ratioP1;P1;durP2;ratioP2;P2;SDS_P1;SDS_P2;PMS_P1;PMS_P2;Temp;Humidity;BMP_temperature;BMP_pressure;BME280_temperature;BME280_humidity;BME280_pressure;Samples;Min_cycle;Max_cycle;Signal;HPM_P1;HPM_P2
2023/11/03 00:02:12;;;;;;;17.20;15.43;;;;;;;9.09;91.34;95448.69;4988448;28;20030;-70
2023/11/03 00:04:38;;;;;;;17.65;15.85;;;;;;;9.11;91.34;95435.75;4972098;28;20085;-70
2023/11/03 00:07:04;;;;;;;19.48;16.55;;;;;;;9.11;90.93;95462.59;4989773;28;20105;-70
2023/11/03 00:09:33;;;;;;;20.75;17.10;;;;;;;9.11;90.95;95459.91;4976323;28;20106;-69
2023/11/03 00:12:06;;;;;;;19.45;16.30;;;;;;;9.10;90.97;95461.03;4965960;28;20032;-70
2023/11/03 00:14:35;;;;;;;16.63;14.98;;;;;;;9.07;91.02;95467.00;4982161;28;20030;-69
2023/11/03 00:17:01;;;;;;;19.73;16.45;;;;;;;9.09;91.59;95480.91;4989582;28;20029;-70
2023/11/03 00:19:30;;;;;;;18.67;16.60;;;;;;;9.11;90.79;95478.72;4988455;28;20182;-69
2023/11/03 00:21:56;;;;;;;21.08;17.63;;;;;;;9.06;90.99;95470.75;5066003;28;20038;-69
2023/11/03 00:24:23;;;;;;;21.70;17.45;;;;;;;9.06;91.25;95473.44;5056188;28;20547;-69
2023/11/03 00:26:48;;;;;;;19.85;16.95;;;;;;;9.00;91.18;95456.69;4989432;28;20029;-69
2023/11/03 00:29:15;;;;;;;19.63;17.20;;;;;;;9.03;91.04;95463.34;4971965;28;20063;-69
2023/11/03 00:31:45;;;;;;;19.88;17.80;;;;;;;9.10;91.35;95466.41;4972103;28;20030;-70
2023/11/03 00:34:15;;;;;;;21.08;18.85;;;;;;;9.05;91.19;95469.19;4987592;28;20452;-73
2023/11/03 00:36:45;;;;;;;18.88;16.75;;;;;;;9.04;91.11;95436.19;4970653;28;20038;-70
2023/11/03 00:39:12;;;;;;;21.67;17.85;;;;;;;8.96;90.89;95428.81;4972466;28;20117;-73
2023/11/03 00:41:39;;;;;;;21.20;18.50;;;;;;;8.98;91.26;95452.69;4991221;28;20485;-72
2023/11/03 00:44:06;;;;;;;20.23;17.92;;;;;;;8.90;90.92;95434.59;4995642;28;20034;-71
2023/11/03 00:46:31;;;;;;;18.40;16.48;;;;;;;9.00;91.20;95445.13;4981646;28;20023;-74
2023/11/03 00:48:58;;;;;;;17.65;15.95;;;;;;;8.98;90.90;95452.69;5000950;28;20063;-69
2023/11/03 00:51:23;;;;;;;17.45;15.65;;;;;;;8.93;91.05;95442.88;5059603;28;20033;-71
2023/11/03 00:53:49;;;;;;;17.00;15.25;;;;;;;8.97;90.79;95451.09;5054807;28;20494;-69
2023/11/03 00:56:14;;;;;;;15.95;14.32;;;;;;;9.01;91.01;95446.72;5068151;28;20097;-69
2023/11/03 00:58:39;;;;;;;16.63;14.85;;;;;;;8.93;90.88;95423.28;5080092;28;20408;-68
2023/11/03 01:01:07;;;;;;;16.63;14.93;;;;;;;8.99;91.07;95438.97;5079873;28;20026;-71
2023/11/03 01:03:32;;;;;;;18.63;15.90;;;;;;;8.97;90.87;95418.88;5061891;28;20034;-71
2023/11/03 01:05:58;;;;;;;16.27;14.52;;;;;;;8.95;90.91;95404.97;5049355;28;20056;-71
2023/11/03 01:08:24;;;;;;;17.60;15.77;;;;;;;8.94;90.96;95414.91;4992424;28;20095;-72
2023/11/03 01:10:49;;;;;;;17.60;15.68;;;;;;;8.88;90.74;95442.97;4988023;28;20060;-72
2023/11/03 01:13:15;;;;;;;16.08;14.38;;;;;;;8.80;90.78;95442.88;5062895;28;20030;-72
2023/11/03 01:15:43;;;;;;;23.00;14.70;;;;;;;8.87;90.44;95445.94;4956043;28;20077;-72
2023/11/03 01:18:09;;;;;;;16.45;14.75;;;;;;;8.80;90.41;95440.97;4980407;28;20037;-71
2023/11/03 01:20:35;;;;;;;17.48;14.65;;;;;;;8.79;90.58;95443.97;4977846;28;20392;-72
2023/11/03 01:23:01;;;;;;;16.15;14.38;;;;;;;8.70;90.96;95435.06;5010083;28;20121;-71
2023/11/03 01:25:28;;;;;;;17.48;15.68;;;;;;;8.83;90.50;95439.59;4997794;28;20053;-73
2023/11/03 01:27:55;;;;;;;16.90;15.10;;;;;;;8.82;90.33;95433.44;4981950;28;20092;-69
2023/11/03 01:30:20;;;;;;;19.42;15.95;;;;;;;8.79;90.75;95425.19;4979029;28;20026;-69
2023/11/03 01:32:46;;;;;;;21.77;16.30;;;;;;;8.78;90.53;95428.97;4987198;28;20186;-70
2023/11/03 01:35:12;;;;;;;19.77;16.50;;;;;;;8.73;90.63;95435.22;4980246;28;20022;-70
2023/11/03 01:37:38;;;;;;;20.23;16.52;;;;;;;8.66;90.67;95440.19;5065944;28;20030;-70
2023/11/03 01:40:08;;;;;;;16.55;14.77;;;;;;;8.58;90.74;95432.06;5075897;28;20491;-70
2023/11/03 01:42:36;;;;;;;20.33;15.13;;;;;;;8.44;90.42;95421.34;4991750;28;20035;-70
2023/11/03 01:45:04;;;;;;;18.27;14.85;;;;;;;8.55;90.12;95435.34;4997462;28;20101;-71
2023/11/03 01:47:29;;;;;;;19.27;15.43;;;;;;;8.47;89.93;95426.09;4980257;28;20574;-71
2023/11/03 01:49:56;;;;;;;17.38;14.07;;;;;;;8.50;90.51;95420.16;4998977;28;20121;-71
2023/11/03 01:52:22;;;;;;;15.50;13.85;;;;;;;8.47;90.06;95404.66;5047924;28;20030;-71
2023/11/03 01:54:47;;;;;;;17.88;14.75;;;;;;;8.31;90.08;95396.13;5002597;28;20478;-72
2023/11/03 01:57:13;;;;;;;17.50;15.15;;;;;;;8.29;90.10;95403.66;4971553;28;20035;-71
2023/11/03 01:59:38;;;;;;;18.23;14.77;;;;;;;8.27;90.30;95403.19;5062265;28;20025;-72
2023/11/03 02:02:05;;;;;;;20.25;15.25;;;;;;;8.24;89.68;95387.66;5061206;28;20033;-71
2023/11/03 02:04:30;;;;;;;16.77;14.48;;;;;;;8.29;89.70;95400.19;4993164;28;20032;-71
2023/11/03 02:06:55;;;;;;;16.30;14.15;;;;;;;8.22;89.77;95397.88;4999426;28;20038;-71
2023/11/03 02:09:21;;;;;;;17.80;14.38;;;;;;;8.20;90.21;95386.66;4991542;28;20018;-71
2023/11/03 02:11:48;;;;;;;15.65;13.40;;;;;;;8.00;90.54;95392.44;5004824;28;20042;-73
2023/11/03 02:14:16;;;;;;;15.70;13.20;;;;;;;8.00;89.93;95405.81;5054428;28;20031;-74
2023/11/03 02:16:42;;;;;;;15.07;13.55;;;;;;;8.05;90.19;95418.34;4977310;28;20082;-73
2023/11/03 02:19:11;;;;;;;16.50;13.63;;;;;;;8.01;89.88;95402.03;4981529;28;20026;-73
2023/11/03 02:21:37;;;;;;;17.83;13.05;;;;;;;8.10;90.59;95421.69;5018805;28;20061;-72
2023/11/03 02:24:04;;;;;;;13.93;12.23;;;;;;;8.07;90.54;95419.63;4985408;28;20022;-73
2023/11/03 02:26:30;;;;;;;14.77;12.48;;;;;;;7.84;90.97;95404.47;4988137;28;20033;-72
2023/11/03 02:28:55;;;;;;;12.98;11.38;;;;;;;8.01;90.43;95428.03;5078738;28;20026;-71
2023/11/03 02:31:21;;;;;;;12.93;11.35;;;;;;;7.93;90.52;95421.50;5061258;28;20030;-70
2023/11/03 02:33:46;;;;;;;12.32;9.88;;;;;;;7.97;90.94;95433.19;5052914;28;20654;-72
2023/11/03 02:36:11;;;;;;;11.82;10.30;;;;;;;7.99;91.09;95431.03;5058194;28;20042;-72
2023/11/03 02:38:37;;;;;;;11.07;9.45;;;;;;;7.98;90.34;95425.97;5078370;28;20034;-72
2023/11/03 02:41:03;;;;;;;10.40;9.00;;;;;;;8.01;90.17;95423.47;4996385;28;20038;-71
2023/11/03 02:43:28;;;;;;;12.50;9.90;;;;;;;8.04;90.72;95427.44;5061309;28;20532;-71
2023/11/03 02:45:54;;;;;;;13.75;9.38;;;;;;;8.01;90.97;95428.84;4978600;28;20117;-72
2023/11/03 02:48:19;;;;;;;13.77;10.05;;;;;;;7.90;90.64;95410.56;4998025;28;20115;-72
2023/11/03 02:50:44;;;;;;;11.65;8.68;;;;;;;7.93;90.45;95408.09;5077743;28;20034;-72
2023/11/03 02:53:10;;;;;;;11.32;9.05;;;;;;;7.98;90.77;95423.28;5002246;28;20026;-72
2023/11/03 02:55:35;;;;;;;12.70;9.05;;;;;;;7.94;90.22;95424.94;5047409;28;20379;-71
2023/11/03 02:58:02;;;;;;;11.95;8.65;;;;;;;7.92;91.02;95441.31;4992977;28;20078;-71
2023/11/03 03:00:28;;;;;;;11.23;8.95;;;;;;;7.81;90.63;95437.25;4979457;28;20042;-74
2023/11/03 03:02:54;;;;;;;11.25;9.07;;;;;;;7.90;90.70;95437.34;4974200;28;20030;-73
2023/11/03 03:05:19;;;;;;;12.00;9.32;;;;;;;7.88;90.86;95439.53;4989062;28;20030;-72
2023/11/03 03:07:46;;;;;;;11.10;8.73;;;;;;;7.78;90.77;95439.69;4990279;28;20570;-72
2023/11/03 03:10:12;;;;;;;12.40;9.00;;;;;;;7.84;90.97;95444.66;4979922;28;20375;-72
2023/11/03 03:12:37;;;;;;;11.90;10.02;;;;;;;7.75;90.66;95425.00;4988953;28;20061;-72
2023/11/03 03:15:04;;;;;;;11.93;10.00;;;;;;;7.65;90.90;95419.84;4987710;28;20645;-72
2023/11/03 03:17:30;;;;;;;11.73;9.68;;;;;;;7.70;90.89;95421.63;4996584;28;20034;-72
2023/11/03 03:19:55;;;;;;;13.60;11.18;;;;;;;7.63;90.75;95419.34;4992541;28;20181;-72
2023/11/03 03:22:21;;;;;;;12.70;10.82;;;;;;;7.62;90.84;95420.41;5048833;28;20133;-73
2023/11/03 03:24:46;;;;;;;14.10;10.52;;;;;;;7.53;91.07;95411.47;5037433;28;20121;-72
2023/11/03 03:27:12;;;;;;;13.38;11.32;;;;;;;7.59;89.91;95411.09;5074200;28;20244;-72
2023/11/03 03:29:37;;;;;;;14.15;11.27;;;;;;;7.55;90.67;95409.28;4970071;28;20039;-73
2023/11/03 03:32:03;;;;;;;14.60;11.80;;;;;;;7.51;91.01;95402.94;4969265;28;20030;-72
2023/11/03 03:34:29;;;;;;;12.93;11.40;;;;;;;7.61;90.74;95408.91;4989674;28;20035;-71
2023/11/03 03:36:54;;;;;;;14.88;11.05;;;;;;;7.38;91.35;95412.50;5041002;28;20030;-71
2023/11/03 03:39:20;;;;;;;16.52;12.98;;;;;;;7.28;91.50;95398.50;5003262;28;20113;-72
2023/11/03 03:41:50;;;;;;;16.88;13.10;;;;;;;7.32;90.98;95396.81;5077222;28;20034;-71
2023/11/03 03:44:15;;;;;;;12.95;11.18;;;;;;;7.33;91.13;95401.06;4991362;28;20053;-71
2023/11/03 03:46:40;;;;;;;14.57;10.85;;;;;;;7.42;90.65;95410.06;4979118;28;20030;-73
2023/11/03 03:49:06;;;;;;;13.75;11.30;;;;;;;7.43;90.57;95406.28;4996573;28;20100;-72
2023/11/03 03:51:31;;;;;;;20.27;14.98;;;;;;;7.39;91.22;95410.63;4976832;28;20023;-70
2023/11/03 03:53:56;;;;;;;20.40;16.15;;;;;;;7.44;90.70;95410.56;4989592;28;20034;-71
2023/11/03 03:56:25;;;;;;;16.92;10.88;;;;;;;7.41;89.95;95408.44;5073690;28;20417;-71
2023/11/03 03:58:54;;;;;;;25.80;18.33;;;;;;;7.37;91.17;95407.44;5073566;28;20050;-71
2023/11/03 04:01:20;;;;;;;17.75;14.13;;;;;;;7.38;90.65;95403.66;4966009;28;20485;-70
2023/11/03 04:03:45;;;;;;;11.43;10.10;;;;;;;7.35;91.21;95398.91;4991633;28;20392;-71
2023/11/03 04:06:11;;;;;;;17.00;10.85;;;;;;;7.35;90.93;95390.88;4989728;28;20049;-71
2023/11/03 04:08:37;;;;;;;17.33;12.57;;;;;;;7.23;91.08;95395.91;4973083;28;20560;-71
2023/11/03 04:11:03;;;;;;;17.40;12.02;;;;;;;7.22;91.58;95395.09;4988507;28;20054;-71
2023/11/03 04:13:28;;;;;;;13.88;10.52;;;;;;;7.21;90.87;95403.44;4989454;28;20069;-72
2023/11/03 04:15:54;;;;;;;11.90;9.50;;;;;;;7.19;91.28;95394.91;4972213;28;20034;-73
2023/11/03 04:18:19;;;;;;;9.57;7.05;;;;;;;7.24;90.68;95405.50;5002611;28;20386;-73
2023/11/03 04:20:45;;;;;;;11.52;9.27;;;;;;;7.27;91.07;95407.59;4979580;28;20128;-72
2023/11/03 04:23:12;;;;;;;10.75;9.15;;;;;;;7.20;90.87;95391.13;4976167;28;20042;-72
2023/11/03 04:25:38;;;;;;;12.27;9.73;;;;;;;7.26;90.30;95400.69;4991450;28;20029;-72
2023/11/03 04:28:11;;;;;;;10.70;9.38;;;;;;;7.23;90.67;95401.25;4989512;28;20398;-73
2023/11/03 04:30:36;;;;;;;12.93;9.15;;;;;;;7.12;90.02;95391.78;4981017;28;20045;-72
2023/11/03 04:33:02;;;;;;;13.55;9.25;;;;;;;7.17;90.00;95402.41;5008847;28;20029;-73
2023/11/03 04:35:28;;;;;;;9.88;8.45;;;;;;;7.17;89.61;95391.69;4997854;28;20030;-72
2023/11/03 04:37:54;;;;;;;10.30;5.35;;;;;;;7.17;89.84;95386.34;4985430;28;20478;-72
2023/11/03 04:40:20;;;;;;;12.20;7.70;;;;;;;7.19;89.80;95374.25;4972079;28;20029;-73
2023/11/03 04:42:49;;;;;;;7.20;4.95;;;;;;;7.22;89.77;95378.22;4991536;28;20023;-70
2023/11/03 04:45:20;;;;;;;7.63;4.90;;;;;;;7.19;89.75;95374.25;4990087;28;20482;-73
2023/11/03 04:47:45;;;;;;;7.72;4.78;;;;;;;7.23;89.03;95361.09;5001383;28;20034;-73
2023/11/03 04:50:11;;;;;;;9.32;5.13;;;;;;;7.25;88.36;95356.25;5076579;28;20555;-73
2023/11/03 04:52:37;;;;;;;8.88;5.00;;;;;;;7.28;89.24;95358.34;5007622;28;20072;-73
2023/11/03 04:55:04;;;;;;;9.48;5.63;;;;;;;6.97;89.01;95307.19;5007193;28;20037;-73
2023/11/03 04:57:29;;;;;;;10.23;5.68;;;;;;;7.24;88.09;95338.59;5003276;28;20053;-74
2023/11/03 04:59:55;;;;;;;9.52;4.93;;;;;;;7.19;88.19;95330.66;4973474;28;20026;-72
2023/11/03 05:02:20;;;;;;;9.98;5.00;;;;;;;7.31;88.43;95344.34;5005356;28;20386;-72
2023/11/03 05:04:45;;;;;;;11.18;5.00;;;;;;;7.34;87.70;95349.13;4974543;28;20109;-72
2023/11/03 05:07:11;;;;;;;7.68;5.05;;;;;;;7.31;88.21;95355.06;4991105;28;20034;-70
2023/11/03 05:09:37;;;;;;;10.02;7.00;;;;;;;7.23;88.29;95347.72;4994590;28;20034;-73
2023/11/03 05:12:03;;;;;;;11.60;6.85;;;;;;;7.30;87.61;95365.00;4988758;28;20088;-72
2023/11/03 05:14:32;;;;;;;9.38;5.60;;;;;;;7.28;87.38;95371.72;5049386;28;20030;-73
2023/11/03 05:16:57;;;;;;;5.90;5.05;;;;;;;7.28;86.83;95369.06;4987544;28;20034;-73
2023/11/03 05:19:24;;;;;;;8.43;6.07;;;;;;;7.21;87.33;95364.06;4972957;28;20057;-73
2023/11/03 05:21:50;;;;;;;10.07;4.43;;;;;;;7.20;86.92;95369.72;5062759;28;20482;-73
2023/11/03 05:24:15;;;;;;;7.40;5.03;;;;;;;7.07;86.89;95365.13;5012990;28;20034;-73
2023/11/03 05:26:41;;;;;;;8.15;4.93;;;;;;;7.14;86.68;95378.91;4996700;28;20084;-73
2023/11/03 05:29:07;;;;;;;8.55;4.70;;;;;;;7.07;86.78;95370.47;4964572;28;20025;-74
2023/11/03 05:31:33;;;;;;;9.75;4.85;;;;;;;7.16;86.17;95387.44;5006944;28;20056;-73
2023/11/03 05:34:01;;;;;;;8.02;4.53;;;;;;;7.19;86.55;95389.53;5006749;28;20028;-73
2023/11/03 05:36:26;;;;;;;7.57;4.10;;;;;;;7.16;87.01;95384.75;5007826;28;20041;-73
2023/11/03 05:38:51;;;;;;;13.00;7.47;;;;;;;7.13;86.29;95385.34;4974630;28;20548;-73
2023/11/03 05:41:17;;;;;;;10.90;4.38;;;;;;;7.17;86.52;95402.41;4974684;28;20050;-72
2023/11/03 05:43:42;;;;;;;11.35;8.10;;;;;;;7.17;86.77;95402.41;4974056;28;20022;-73
2023/11/03 05:46:07;;;;;;;8.57;4.55;;;;;;;7.16;86.46;95406.19;4990410;28;20031;-73
2023/11/03 05:48:33;;;;;;;7.57;4.65;;;;;;;7.13;86.43;95406.75;4974358;28;20034;-73
2023/11/03 05:50:58;;;;;;;5.82;3.85;;;;;;;7.20;86.73;95412.53;4992196;28;20114;-74
2023/11/03 05:53:24;;;;;;;6.78;3.92;;;;;;;7.22;86.44;95415.72;4992054;28;20401;-73
2023/11/03 05:55:49;;;;;;;10.65;3.70;;;;;;;7.21;86.82;95408.78;4973914;28;20046;-73
2023/11/03 05:58:15;;;;;;;7.88;4.43;;;;;;;7.28;86.72;95425.25;5075850;28;20018;-73
2023/11/03 06:00:40;;;;;;;7.13;4.10;;;;;;;7.25;86.43;95425.84;4991670;28;20632;-73
2023/11/03 06:03:06;;;;;;;8.48;4.50;;;;;;;7.30;87.31;95428.44;4974309;28;20060;-73
2023/11/03 06:05:31;;;;;;;7.90;4.63;;;;;;;7.31;86.30;95409.41;4990086;28;20038;-72
2023/11/03 06:07:57;;;;;;;5.82;4.18;;;;;;;7.31;87.05;95406.72;4974169;28;20095;-73
2023/11/03 06:10:22;;;;;;;6.50;4.00;;;;;;;7.34;86.75;95402.66;5008859;28;20117;-73
2023/11/03 06:12:47;;;;;;;9.80;4.18;;;;;;;7.46;86.33;95421.75;5075208;28;20378;-72
2023/11/03 06:15:13;;;;;;;8.73;4.45;;;;;;;7.39;86.91;95421.34;4990975;28;20038;-73
2023/11/03 06:17:39;;;;;;;10.70;8.23;;;;;;;7.44;86.86;95424.75;4974118;28;20405;-73
2023/11/03 06:20:05;;;;;;;9.82;5.28;;;;;;;7.51;86.77;95438.53;4988624;28;20033;-73
2023/11/03 06:22:31;;;;;;;8.00;4.85;;;;;;;7.56;86.31;95443.78;4989101;28;20076;-72
2023/11/03 06:24:57;;;;;;;9.68;4.38;;;;;;;7.55;86.36;95444.09;4988606;28;21038;-72
2023/11/03 06:27:22;;;;;;;8.77;4.65;;;;;;;7.66;86.26;95453.56;4981442;28;20419;-73
2023/11/03 06:29:48;;;;;;;8.98;4.80;;;;;;;7.62;86.65;95441.84;4974685;28;20143;-72
2023/11/03 06:32:13;;;;;;;8.70;4.55;;;;;;;7.67;86.81;95463.19;4985223;28;20473;-73
2023/11/03 06:34:39;;;;;;;8.15;4.55;;;;;;;7.72;86.68;95468.47;4960469;28;20042;-72
2023/11/03 06:37:05;;;;;;;5.82;4.53;;;;;;;7.79;85.99;95473.44;4993392;28;20029;-72
2023/11/03 06:39:31;;;;;;;9.13;5.18;;;;;;;7.83;86.21;95482.47;5003897;28;20495;-72
2023/11/03 06:41:56;;;;;;;8.60;4.90;;;;;;;7.73;86.53;95463.88;4991917;28;20029;-72
2023/11/03 06:44:23;;;;;;;7.25;4.45;;;;;;;7.82;86.56;95487.03;4991453;28;20543;-72
2023/11/03 06:46:48;;;;;;;11.57;4.28;;;;;;;7.83;86.27;95491.31;4987407;28;20022;-72
2023/11/03 06:49:14;;;;;;;12.57;5.53;;;;;;;7.82;86.31;95503.09;4976205;28;20445;-71
2023/11/03 06:51:42;;;;;;;7.45;4.05;;;;;;;7.71;85.53;95482.94;4976632;28;20083;-73
2023/11/03 06:54:09;;;;;;;7.35;3.60;;;;;;;7.73;86.08;95509.41;4992353;28;20091;-72
2023/11/03 06:56:34;;;;;;;7.90;3.50;;;;;;;7.80;86.15;95502.63;5010157;28;20057;-70
2023/11/03 06:59:00;;;;;;;5.60;3.53;;;;;;;7.84;85.96;95514.31;4992835;28;20073;-71
2023/11/03 07:01:25;;;;;;;7.45;3.50;;;;;;;7.85;85.05;95510.56;4976783;28;20464;-71
2023/11/03 07:03:51;;;;;;;5.80;3.13;;;;;;;7.80;85.53;95502.63;4995394;28;20531;-71
2023/11/03 07:06:17;;;;;;;8.35;3.25;;;;;;;7.84;84.89;95508.97;4976863;28;20022;-71
2023/11/03 07:08:43;;;;;;;8.15;3.17;;;;;;;7.91;85.03;95501.34;4978562;28;20117;-71
2023/11/03 07:11:10;;;;;;;8.30;3.38;;;;;;;7.95;85.13;95499.69;4998534;28;20034;-73
2023/11/03 07:13:35;;;;;;;8.40;3.05;;;;;;;8.01;84.29;95501.19;5046573;28;20033;-71
2023/11/03 07:16:05;;;;;;;5.60;3.40;;;;;;;7.97;84.57;95497.50;4973177;28;20031;-71
2023/11/03 07:18:30;;;;;;;8.52;3.67;;;;;;;7.98;84.81;95501.78;5066340;28;20053;-70
2023/11/03 07:20:56;;;;;;;7.50;4.10;;;;;;;7.95;84.95;95494.34;5074449;28;20030;-71
2023/11/03 07:23:21;;;;;;;6.32;3.42;;;;;;;8.07;84.32;95502.72;5002293;28;20038;-71
2023/11/03 07:25:50;;;;;;;7.07;3.20;;;;;;;8.00;84.51;95491.56;4985858;28;20420;-71
2023/11/03 07:28:17;;;;;;;6.55;4.00;;;;;;;8.14;84.19;95508.50;4990498;28;20076;-71
2023/11/03 07:30:43;;;;;;;6.13;3.10;;;;;;;8.10;84.17;95507.47;5000047;28;20026;-72
2023/11/03 07:33:10;;;;;;;8.57;2.90;;;;;;;8.17;84.31;95529.31;4977268;28;20042;-71
2023/11/03 07:35:36;;;;;;;6.80;2.80;;;;;;;8.15;84.76;95531.50;4989892;28;20469;-71
2023/11/03 07:38:03;;;;;;;9.38;2.78;;;;;;;8.12;84.73;95523.28;4983300;28;20493;-73
2023/11/03 07:40:29;;;;;;;7.10;3.28;;;;;;;8.13;84.22;95524.84;4978342;28;20018;-73
2023/11/03 07:42:55;;;;;;;7.05;3.17;;;;;;;8.20;84.36;95539.47;5001012;28;20034;-74
2023/11/03 07:45:23;;;;;;;8.13;2.90;;;;;;;8.20;84.79;95531.41;4981478;28;20480;-73
2023/11/03 07:47:49;;;;;;;6.57;3.40;;;;;;;8.23;84.11;95544.25;4978894;28;20481;-73
2023/11/03 07:50:16;;;;;;;6.30;4.00;;;;;;;8.23;83.78;95544.25;4972963;28;20030;-73
2023/11/03 07:52:43;;;;;;;10.13;4.57;;;;;;;8.23;83.80;95543.44;5055720;28;20043;-73
2023/11/03 07:55:09;;;;;;;8.00;3.20;;;;;;;8.26;83.71;95543.66;4972393;28;20033;-74
2023/11/03 07:57:34;;;;;;;6.85;2.80;;;;;;;8.24;83.82;95540.47;5057099;28;20035;-73
2023/11/03 08:00:05;;;;;;;4.88;2.63;;;;;;;8.26;84.00;95542.91;4989200;28;20033;-74
2023/11/03 08:02:38;;;;;;;6.35;3.10;;;;;;;8.28;83.73;95557.56;4988888;28;20046;-72
2023/11/03 08:05:06;;;;;;;7.30;2.90;;;;;;;8.17;83.00;95532.00;4972165;28;20038;-73
2023/11/03 08:07:32;;;;;;;6.25;2.55;;;;;;;8.14;83.10;95535.28;4972570;28;20050;-72
2023/11/03 08:09:57;;;;;;;6.90;2.60;;;;;;;8.13;83.42;95533.69;4969275;28;20494;-73
2023/11/03 08:12:23;;;;;;;5.55;3.30;;;;;;;8.13;83.17;95530.22;5033855;28;20037;-72
2023/11/03 08:14:48;;;;;;;8.45;2.70;;;;;;;8.19;82.74;95531.72;4990008;28;20117;-72
2023/11/03 08:17:13;;;;;;;6.72;3.22;;;;;;;8.07;82.84;95534.88;4972543;28;20076;-73
2023/11/03 08:19:39;;;;;;;6.43;2.67;;;;;;;8.02;82.84;95510.84;4989734;28;20053;-72
2023/11/03 08:22:04;;;;;;;6.53;2.70;;;;;;;8.06;82.58;95514.50;4989183;28;20034;-71
2023/11/03 08:24:32;;;;;;;6.05;2.42;;;;;;;8.12;82.48;95520.59;4991478;28;20033;-73
2023/11/03 08:26:59;;;;;;;7.50;2.58;;;;;;;8.19;82.49;95515.66;5007877;28;20026;-71
2023/11/03 08:29:24;;;;;;;6.72;2.53;;;;;;;8.26;82.54;95508.03;4975461;28;20042;-72
2023/11/03 08:31:50;;;;;;;7.32;2.55;;;;;;;8.27;81.72;95505.06;5008750;28;20034;-73
2023/11/03 08:34:15;;;;;;;6.35;2.70;;;;;;;8.29;81.84;95505.56;4990948;28;20038;-72
2023/11/03 08:36:40;;;;;;;6.97;2.90;;;;;;;8.34;81.56;95502.78;4991372;28;20057;-72
2023/11/03 08:39:09;;;;;;;8.23;3.08;;;;;;;8.48;81.35;95508.16;5008959;28;20408;-71
2023/11/03 08:41:36;;;;;;;6.40;2.67;;;;;;;8.47;81.08;95513.84;4974006;28;20034;-71
2023/11/03 08:44:03;;;;;;;7.13;3.20;;;;;;;8.60;81.06;95521.09;5000755;28;20046;-71
2023/11/03 08:46:28;;;;;;;7.28;2.70;;;;;;;8.69;81.21;95513.94;4990741;28;20067;-71
2023/11/03 08:48:55;;;;;;;8.05;3.03;;;;;;;8.67;81.55;95510.75;4989723;28;20548;-72
2023/11/03 08:51:22;;;;;;;8.77;2.58;;;;;;;8.81;80.93;95511.56;5062599;28;20030;-73
2023/11/03 08:53:48;;;;;;;7.90;2.35;;;;;;;8.79;80.70;95519.09;4987705;28;20421;-74
2023/11/03 08:56:13;;;;;;;4.07;2.60;;;;;;;8.77;80.46;95532.03;5002814;28;20030;-73
2023/11/03 08:58:42;;;;;;;12.65;7.30;;;;;;;8.88;80.28;95522.69;4972340;28;20037;-71
2023/11/03 09:01:09;;;;;;;6.60;2.60;;;;;;;8.78;80.57;95509.47;4971762;28;20026;-72
2023/11/03 09:03:35;;;;;;;6.95;2.38;;;;;;;8.80;80.57;95516.13;4990674;28;20033;-72
2023/11/03 09:06:02;;;;;;;5.32;2.75;;;;;;;8.91;80.36;95528.22;4972960;28;20018;-72
2023/11/03 09:08:28;;;;;;;5.50;2.75;;;;;;;8.89;80.08;95532.34;4987942;28;20027;-72
2023/11/03 09:10:53;;;;;;;6.93;2.38;;;;;;;8.98;79.96;95531.31;5017232;28;20442;-72
2023/11/03 09:13:19;;;;;;;8.27;2.40;;;;;;;8.95;79.90;95517.72;4972887;28;20122;-72
2023/11/03 09:15:45;;;;;;;15.27;9.25;;;;;;;9.10;79.85;95540.78;5036566;28;20034;-73
2023/11/03 09:18:11;;;;;;;18.60;9.85;;;;;;;9.19;79.90;95545.13;4985441;28;20043;-73
2023/11/03 09:20:38;;;;;;;12.93;3.78;;;;;;;9.16;79.86;95545.72;4992236;28;20158;-73
2023/11/03 09:23:03;;;;;;;7.03;2.70;;;;;;;9.19;79.76;95545.13;4981270;28;20030;-72
2023/11/03 09:25:29;;;;;;;7.75;2.60;;;;;;;9.08;79.64;95542.97;5003568;28;20029;-73
2023/11/03 09:27:55;;;;;;;13.82;6.70;;;;;;;9.14;79.27;95531.00;5068002;23;20579;-75
2023/11/03 09:30:22;;;;;;;8.85;3.95;;;;;;;9.07;79.24;95536.78;5054423;28;20013;-74
2023/11/03 09:32:48;;;;;;;4.93;2.25;;;;;;;9.09;79.63;95545.34;5057765;28;20403;-74
2023/11/03 09:35:14;;;;;;;9.18;3.30;;;;;;;9.14;79.28;95531.81;5087215;28;20040;-75
2023/11/03 09:37:39;;;;;;;6.70;2.90;;;;;;;9.00;79.26;95515.72;5062172;28;20033;-74
2023/11/03 09:40:09;;;;;;;7.57;2.40;;;;;;;9.02;79.68;95535.00;5063816;28;20036;-74
2023/11/03 09:42:35;;;;;;;6.07;2.88;;;;;;;9.11;79.51;95543.16;5072526;28;20032;-74
2023/11/03 09:45:04;;;;;;;6.18;2.97;;;;;;;9.14;79.53;95534.50;5043837;28;20533;-74
2023/11/03 09:47:29;;;;;;;6.47;2.92;;;;;;;9.22;79.31;95544.53;5076224;28;20107;-73
2023/11/03 09:49:58;;;;;;;7.07;2.78;;;;;;;9.25;79.44;95559.25;5068697;28;20052;-74
2023/11/03 09:52:24;;;;;;;7.82;3.58;;;;;;;9.32;79.46;95559.63;5087767;28;20093;-73
2023/11/03 09:54:50;;;;;;;6.85;3.40;;;;;;;9.20;79.77;95554.78;5063676;28;20039;-74
2023/11/03 09:57:16;;;;;;;7.78;3.22;;;;;;;9.19;79.54;95549.72;5056458;28;20040;-74
2023/11/03 09:59:41;;;;;;;8.70;3.20;;;;;;;9.28;79.56;95564.81;5063402;28;20036;-74
2023/11/03 10:02:10;;;;;;;9.43;2.55;;;;;;;9.26;79.73;95567.00;5054099;28;20115;-75
2023/11/03 10:04:38;;;;;;;7.55;3.03;;;;;;;9.27;79.71;95568.59;5075631;28;20024;-74
2023/11/03 10:07:05;;;;;;;6.72;2.40;;;;;;;9.20;79.40;95572.75;5090024;28;20028;-73
2023/11/03 10:09:30;;;;;;;5.88;2.55;;;;;;;9.15;79.47;95581.72;5061607;28;20051;-74
2023/11/03 10:11:56;;;;;;;9.30;3.78;;;;;;;9.19;79.33;95563.94;5066153;28;20483;-74
2023/11/03 10:14:24;;;;;;;4.40;3.00;;;;;;;9.21;79.75;95564.44;5041840;28;20020;-74
2023/11/03 10:16:51;;;;;;;5.28;2.70;;;;;;;9.31;79.80;95574.16;5069568;28;20036;-74
2023/11/03 10:19:19;;;;;;;7.07;2.22;;;;;;;9.16;79.92;95564.53;5064177;28;20502;-74
2023/11/03 10:21:47;;;;;;;5.00;1.80;;;;;;;9.20;79.89;95578.94;5054694;28;20063;-74
2023/11/03 10:24:15;;;;;;;6.90;2.25;;;;;;;9.20;79.36;95584.31;5065852;28;20048;-74
2023/11/03 10:26:41;;;;;;;7.88;2.63;;;;;;;9.23;80.15;95577.53;5052163;28;20042;-74
2023/11/03 10:29:07;;;;;;;6.53;2.50;;;;;;;9.28;79.71;95583.63;5070875;28;20032;-75
2023/11/03 10:31:32;;;;;;;7.57;2.47;;;;;;;9.18;80.18;95575.75;5058503;28;20040;-73
2023/11/03 10:33:58;;;;;;;6.68;2.42;;;;;;;9.11;80.37;95577.25;5054801;28;20107;-74
2023/11/03 10:36:25;;;;;;;5.47;2.47;;;;;;;9.24;80.24;95581.84;5087864;28;20070;-73
2023/11/03 10:38:50;;;;;;;9.77;2.42;;;;;;;9.15;79.62;95587.09;5054013;28;20484;-74
2023/11/03 10:41:16;;;;;;;8.40;2.30;;;;;;;8.94;79.45;95564.41;5085549;28;20041;-74
2023/11/03 10:43:45;;;;;;;8.27;2.90;;;;;;;9.00;79.82;95580.16;5049001;28;20031;-76
2023/11/03 10:46:14;;;;;;;5.85;2.30;;;;;;;9.03;79.76;95576.06;5082441;28;20054;-74
2023/11/03 10:48:44;;;;;;;6.40;2.38;;;;;;;8.92;79.77;95561.25;5072090;28;20023;-74
2023/11/03 10:51:16;;;;;;;6.70;2.30;;;;;;;8.99;80.08;95577.75;5072556;28;20059;-74
2023/11/03 10:54:07;;;;;;;5.88;2.60;;;;;;;8.94;80.29;95572.47;5060633;28;20071;-76
2023/11/03 10:56:34;;;;;;;7.60;2.40;;;;;;;8.92;80.11;95566.59;5050472;28;20066;-74
2023/11/03 10:59:00;;;;;;;6.20;2.30;;;;;;;8.92;80.70;95574.66;5064129;28;20017;-74
2023/11/03 11:01:32;;;;;;;11.35;2.42;;;;;;;9.02;79.85;95580.66;5076051;28;20042;-74
2023/11/03 11:04:05;;;;;;;7.25;2.47;;;;;;;8.96;80.21;95573.00;5082821;28;20501;-74
2023/11/03 11:06:40;;;;;;;7.63;2.30;;;;;;;8.98;80.08;95576.16;5064995;28;20515;-74
2023/11/03 11:09:09;;;;;;;8.05;2.22;;;;;;;9.03;80.10;95573.41;5067696;28;20043;-74
2023/11/03 11:11:37;;;;;;;8.27;2.20;;;;;;;8.97;80.45;95570.00;5049522;28;20024;-73
2023/11/03 11:14:24;;;;;;;5.28;2.15;;;;;;;9.04;79.88;95580.34;5057555;28;20038;-74
2023/11/03 11:16:56;;;;;;;7.22;2.10;;;;;;;8.97;79.97;95571.88;5047094;28;20122;-75
2023/11/03 11:19:42;;;;;;;6.72;2.50;;;;;;;8.93;79.67;95576.25;5051026;28;20048;-74
2023/11/03 11:22:08;;;;;;;9.00;2.25;;;;;;;8.96;79.97;95578.38;5067015;28;20036;-74
2023/11/03 11:24:35;;;;;;;7.05;2.20;;;;;;;8.95;79.83;95571.38;5066415;28;20035;-74
2023/11/03 11:27:18;;;;;;;4.22;2.10;;;;;;;8.93;79.32;95578.94;5059588;28;20078;-74
2023/11/03 11:29:45;;;;;;;6.97;2.13;;;;;;;8.90;79.72;95574.16;5069668;28;20475;-75
2023/11/03 11:32:11;;;;;;;5.65;2.05;;;;;;;8.96;79.44;95581.03;5068051;28;20017;-74